createdAt,value
2017-11-01T00:01:23.199Z,16.40
2017-11-01T00:03:51.564Z,16.00
2017-11-01T00:06:19.193Z,16.20
2017-11-01T00:08:46.903Z,13.50
2017-11-01T00:11:14.527Z,18.63
2017-11-01T00:13:42.127Z,17.50
2017-11-01T00:16:09.766Z,11.97
2017-11-01T00:18:37.361Z,16.93
2017-11-01T00:21:04.957Z,12.67
2017-11-01T00:23:32.584Z,11.40
2017-11-01T00:26:00.948Z,13.17
2017-11-01T00:28:28.579Z,14.60
2017-11-01T00:30:56.192Z,13.90
2017-11-01T00:33:23.832Z,15.70
2017-11-01T00:35:51.437Z,11.60
2017-11-01T00:38:19.037Z,16.90
2017-11-01T00:40:46.671Z,14.23
2017-11-01T00:43:14.272Z,16.30
2017-11-01T00:45:41.907Z,15.63
2017-11-01T00:48:09.520Z,13.40
2017-11-01T00:50:37.877Z,14.17
2017-11-01T00:53:05.497Z,18.77
2017-11-01T00:55:33.172Z,15.57
2017-11-01T00:58:00.816Z,13.53
2017-11-01T01:00:28.431Z,14.37
2017-11-01T01:02:56.029Z,12.17
2017-11-01T01:05:23.654Z,13.60
2017-11-01T01:07:51.260Z,16.13
2017-11-01T01:10:18.945Z,11.80
2017-11-01T01:12:46.551Z,14.77
2017-11-01T01:15:15.664Z,12.33
2017-11-01T01:17:43.289Z,13.93
2017-11-01T01:20:10.893Z,13.37
2017-11-01T01:22:38.513Z,15.37
2017-11-01T01:25:06.124Z,15.40
2017-11-01T01:27:33.769Z,10.80
2017-11-01T01:30:01.370Z,14.10
2017-11-01T01:32:28.985Z,12.17
2017-11-01T01:34:56.622Z,13.23
2017-11-01T01:37:24.213Z,13.60
2017-11-01T01:39:51.841Z,15.50
2017-11-01T01:42:19.441Z,11.77
2017-11-01T01:44:47.037Z,12.63
2017-11-01T01:47:14.688Z,12.43
2017-11-01T01:49:42.289Z,14.43
2017-11-01T01:52:10.688Z,13.57
2017-11-01T01:54:38.290Z,8.97
2017-11-01T01:57:06.701Z,13.50
2017-11-01T01:59:34.341Z,13.83
2017-11-01T02:02:01.950Z,14.40
2017-11-01T02:04:30.367Z,13.93
2017-11-01T02:06:57.957Z,13.80
2017-11-01T02:09:25.597Z,14.43
2017-11-01T02:11:53.193Z,13.47
2017-11-01T02:14:21.639Z,12.70
2017-11-01T02:16:49.281Z,17.50
2017-11-01T02:19:16.911Z,11.60
2017-11-01T02:21:45.304Z,13.60
2017-11-01T02:24:12.916Z,13.07
2017-11-01T02:26:40.570Z,14.37
2017-11-01T02:29:08.194Z,9.53
2017-11-01T02:31:35.797Z,12.87
2017-11-01T02:34:03.444Z,13.37
2017-11-01T02:36:31.083Z,13.27
2017-11-01T02:38:58.721Z,11.97
2017-11-01T02:41:26.351Z,13.13
2017-11-01T02:43:53.979Z,14.10
2017-11-01T02:46:21.646Z,12.27
2017-11-01T02:48:49.258Z,12.50
2017-11-01T02:51:17.665Z,10.93
2017-11-01T02:53:45.274Z,10.80
2017-11-01T02:56:12.937Z,13.83
2017-11-01T02:58:40.555Z,14.40
2017-11-01T03:01:08.199Z,12.03
2017-11-01T03:03:35.812Z,12.00
2017-11-01T03:06:03.471Z,13.03
2017-11-01T03:08:31.077Z,11.23
2017-11-01T03:10:58.747Z,14.63
2017-11-01T03:13:26.365Z,13.43
2017-11-01T03:15:54.032Z,12.80
2017-11-01T03:18:21.658Z,11.40
2017-11-01T03:20:49.330Z,12.57
2017-11-01T03:23:17.713Z,14.23
2017-11-01T03:25:45.345Z,13.93
2017-11-01T03:28:12.965Z,18.80
2017-11-01T03:30:41.381Z,15.73
2017-11-01T03:33:09.041Z,16.63
2017-11-01T03:35:36.669Z,15.57
2017-11-01T03:38:05.061Z,16.13
2017-11-01T03:40:32.733Z,18.73
2017-11-01T03:43:00.356Z,17.60
2017-11-01T03:45:27.993Z,16.60
2017-11-01T03:47:55.617Z,13.90
2017-11-01T03:50:23.278Z,16.60
2017-11-01T03:52:50.882Z,14.23
2017-11-01T03:55:19.282Z,18.40
2017-11-01T03:57:46.898Z,17.10
2017-11-01T04:00:14.549Z,19.37
2017-11-01T04:02:42.158Z,18.03
2017-11-01T04:05:09.817Z,17.03
2017-11-01T04:07:37.451Z,19.00
2017-11-01T04:10:05.088Z,18.97
2017-11-01T04:12:32.760Z,20.63
2017-11-01T04:15:00.401Z,18.40
2017-11-01T04:17:28.024Z,18.17
2017-11-01T04:19:56.382Z,19.63
2017-11-01T04:22:24.077Z,16.77
2017-11-01T04:24:52.444Z,29.63
2017-11-01T04:27:20.092Z,25.40
2017-11-01T04:29:47.702Z,23.90
2017-11-01T04:32:16.132Z,22.93
2017-11-01T04:34:43.769Z,21.13
2017-11-01T04:37:11.405Z,20.37
2017-11-01T04:39:39.797Z,23.10
2017-11-01T04:42:07.450Z,22.57
2017-11-01T04:44:35.064Z,24.73
2017-11-01T04:47:02.710Z,22.57
2017-11-01T04:49:30.349Z,22.30
2017-11-01T04:51:58.791Z,21.07
2017-11-01T04:54:27.199Z,20.10
2017-11-01T04:56:54.829Z,21.97
2017-11-01T04:59:23.257Z,24.33
2017-11-01T05:01:54.750Z,23.33
2017-11-01T05:04:22.408Z,20.83
2017-11-01T05:06:50.068Z,22.27
2017-11-01T05:09:17.728Z,21.23
2017-11-01T05:11:45.369Z,23.90
2017-11-01T05:14:18.013Z,22.77
2017-11-01T05:16:45.621Z,22.30
2017-11-01T05:19:14.038Z,17.93
2017-11-01T05:21:42.407Z,23.17
2017-11-01T05:24:10.817Z,21.20
2017-11-01T05:26:38.453Z,24.07
2017-11-01T05:29:06.825Z,21.70
2017-11-01T05:31:35.232Z,20.23
2017-11-01T05:34:02.873Z,22.87
2017-11-01T05:36:30.553Z,20.87
2017-11-01T05:38:58.192Z,19.77
2017-11-01T05:41:26.634Z,27.10
2017-11-01T05:43:54.277Z,26.60
2017-11-01T05:46:21.901Z,21.60
2017-11-01T05:48:50.317Z,29.77
2017-11-01T05:51:17.991Z,30.60
2017-11-01T05:53:45.620Z,32.17
2017-11-01T05:56:13.246Z,30.53
2017-11-01T05:58:40.890Z,18.37
2017-11-01T06:01:08.507Z,28.23
2017-11-01T06:03:36.170Z,17.73
2017-11-01T06:06:03.792Z,26.50
2017-11-01T06:08:31.469Z,40.00
2017-11-01T06:10:59.899Z,32.57
2017-11-01T06:13:27.533Z,23.73
2017-11-01T06:15:55.157Z,27.43
2017-11-01T06:18:22.824Z,24.70
2017-11-01T06:20:50.443Z,30.93
2017-11-01T06:23:18.084Z,25.73
2017-11-01T06:25:45.702Z,28.63
2017-11-01T06:28:14.108Z,33.57
2017-11-01T06:30:42.498Z,29.77
2017-11-01T06:33:10.126Z,26.00
2017-11-01T06:35:37.754Z,24.37
2017-11-01T06:38:05.404Z,21.50
2017-11-01T06:40:33.031Z,31.70
2017-11-01T06:43:01.479Z,26.17
2017-11-01T06:45:29.118Z,25.40
2017-11-01T06:47:56.758Z,26.73
2017-11-01T06:50:24.371Z,23.07
2017-11-01T06:52:52.014Z,24.97
2017-11-01T06:55:19.620Z,30.20
2017-11-01T06:57:47.255Z,23.93
2017-11-01T07:00:15.641Z,27.33
2017-11-01T07:02:44.006Z,24.07
2017-11-01T07:05:14.435Z,23.57
2017-11-01T07:07:42.040Z,20.97
2017-11-01T07:10:09.673Z,19.53
2017-11-01T07:12:38.057Z,22.07
2017-11-01T07:15:06.460Z,21.90
2017-11-01T07:17:34.065Z,17.70
2017-11-01T07:20:01.690Z,23.43
2017-11-01T07:22:29.301Z,25.63
2017-11-01T07:24:56.937Z,22.47
2017-11-01T07:27:24.543Z,19.60
2017-11-01T07:29:52.170Z,21.87
2017-11-01T07:32:19.780Z,20.93
2017-11-01T07:34:47.417Z,22.57
2017-11-01T07:37:15.790Z,24.03
2017-11-01T07:39:44.197Z,22.93
2017-11-01T07:42:11.805Z,20.17
2017-11-01T07:44:39.434Z,19.40
2017-11-01T07:47:07.046Z,21.73
2017-11-01T07:49:34.682Z,24.10
2017-11-01T07:52:02.290Z,23.33
2017-11-01T07:54:30.687Z,23.60
2017-11-01T07:56:58.288Z,29.57
2017-11-01T07:59:25.913Z,23.90
2017-11-01T08:01:53.511Z,26.63
2017-11-01T08:04:21.160Z,26.87
2017-11-01T08:06:48.786Z,24.60
2017-11-01T08:09:16.395Z,29.77
2017-11-01T08:11:44.021Z,26.07
2017-11-01T08:14:11.626Z,34.83
2017-11-01T08:16:39.313Z,29.40
2017-11-01T08:19:07.668Z,29.47
2017-11-01T08:21:35.296Z,29.87
2017-11-01T08:24:02.922Z,29.17
2017-11-01T08:26:30.550Z,32.90
2017-11-01T08:28:58.153Z,26.90
2017-11-01T08:31:25.785Z,29.70
2017-11-01T08:33:54.158Z,35.83
2017-11-01T08:36:22.559Z,27.90
2017-11-01T08:38:51.013Z,29.63
2017-11-01T08:41:18.634Z,30.20
2017-11-01T08:43:46.237Z,31.40
2017-11-01T08:46:13.863Z,23.63
2017-11-01T08:48:41.466Z,27.20
2017-11-01T08:51:09.865Z,29.43
2017-11-01T08:53:37.470Z,23.07
2017-11-01T08:56:05.101Z,23.60
2017-11-01T08:58:32.697Z,24.40
2017-11-01T09:01:00.357Z,26.70
2017-11-01T09:03:28.001Z,22.90
2017-11-01T09:05:55.658Z,27.77
2017-11-01T09:08:23.297Z,23.80
2017-11-01T09:10:50.945Z,29.17
2017-11-01T09:13:19.314Z,22.93
2017-11-01T09:15:47.718Z,25.37
2017-11-01T09:18:15.321Z,22.30
2017-11-01T09:20:42.964Z,26.47
2017-11-01T09:23:10.578Z,25.13
2017-11-01T09:25:38.979Z,24.37
2017-11-01T09:28:06.581Z,23.70
2017-11-01T09:30:34.225Z,34.20
2017-11-01T09:33:01.831Z,23.90
2017-11-01T09:35:30.233Z,30.23
2017-11-01T09:37:58.604Z,27.60
2017-11-01T09:40:27.002Z,23.40
2017-11-01T09:42:54.617Z,17.80
2017-11-01T09:45:22.250Z,23.40
2017-11-01T09:47:49.854Z,21.60
2017-11-01T09:50:18.256Z,21.17
2017-11-01T09:52:46.632Z,22.50
2017-11-01T09:55:14.246Z,26.10
2017-11-01T09:57:42.645Z,27.17
2017-11-01T10:00:10.260Z,21.47
2017-11-01T10:02:37.904Z,26.30
2017-11-01T10:05:05.496Z,22.60
2017-11-01T10:07:33.897Z,20.67
2017-11-01T10:10:01.493Z,21.27
2017-11-01T10:12:29.129Z,22.23
2017-11-01T10:14:56.999Z,21.43
2017-11-01T10:17:25.872Z,18.97
2017-11-01T10:19:53.538Z,26.07
2017-11-01T10:22:21.172Z,21.00
2017-11-01T10:24:48.779Z,23.80
2017-11-01T10:27:17.164Z,24.60
2017-11-01T10:29:44.789Z,22.30
2017-11-01T10:32:12.554Z,22.97
2017-11-01T10:34:40.161Z,23.23
2017-11-01T10:37:07.802Z,23.07
2017-11-01T10:39:36.171Z,25.33
2017-11-01T10:42:03.813Z,23.03
2017-11-01T10:44:31.469Z,27.87
2017-11-01T10:46:59.109Z,26.73
2017-11-01T10:49:26.720Z,25.50
2017-11-01T10:51:55.121Z,23.50
2017-11-01T10:54:23.487Z,24.33
2017-11-01T10:56:51.897Z,25.27
2017-11-01T10:59:19.505Z,25.40
2017-11-01T11:01:47.109Z,29.93
2017-11-01T11:04:14.737Z,24.07
2017-11-01T11:06:42.349Z,25.00
2017-11-01T11:09:09.988Z,27.60
2017-11-01T11:11:37.589Z,28.40
2017-11-01T11:14:05.252Z,22.50
2017-11-01T11:16:32.882Z,21.93
2017-11-01T11:19:00.614Z,31.70
2017-11-01T11:21:29.089Z,23.93
2017-11-01T11:23:57.503Z,27.57
2017-11-01T11:26:25.143Z,26.03
2017-11-01T11:28:53.562Z,25.50
2017-11-01T11:31:21.289Z,29.93
2017-11-01T11:33:49.728Z,33.67
2017-11-01T11:36:17.521Z,30.00
2017-11-01T11:38:46.054Z,21.27
2017-11-01T11:41:13.732Z,27.67
2017-11-01T11:43:41.439Z,29.70
2017-11-01T11:46:10.091Z,33.20
2017-11-01T11:48:38.061Z,31.63
2017-11-01T11:51:05.916Z,30.97
2017-11-01T11:53:33.603Z,29.00
2017-11-01T11:56:02.165Z,26.63
2017-11-01T11:58:30.037Z,30.00
2017-11-01T12:00:57.845Z,32.37
2017-11-01T12:03:26.373Z,31.40
2017-11-01T12:05:54.075Z,30.30
2017-11-01T12:08:22.626Z,28.67
2017-11-01T12:10:50.593Z,29.97
2017-11-01T12:13:18.471Z,30.80
2017-11-01T12:15:46.251Z,38.50
2017-11-01T12:18:14.059Z,38.27
2017-11-01T12:20:41.829Z,32.37
2017-11-01T12:23:09.683Z,36.13
2017-11-01T12:25:37.511Z,33.30
2017-11-01T12:28:05.348Z,39.03
2017-11-01T12:30:33.136Z,39.70
2017-11-01T12:33:00.960Z,45.23
2017-11-01T12:35:28.738Z,34.90
2017-11-01T12:37:56.565Z,35.87
2017-11-01T12:40:24.304Z,38.20
2017-11-01T12:42:52.127Z,38.53
2017-11-01T12:45:19.901Z,30.17
2017-11-01T12:47:47.720Z,35.00
2017-11-01T12:50:16.266Z,42.90
2017-11-01T12:52:44.099Z,41.47
2017-11-01T12:55:11.886Z,35.40
2017-11-01T12:57:39.717Z,37.50
2017-11-01T13:00:07.525Z,40.10
2017-11-01T13:02:35.382Z,38.47
2017-11-01T13:05:03.359Z,40.00
2017-11-01T13:07:31.189Z,41.97
2017-11-01T13:09:58.971Z,45.33
2017-11-01T13:12:26.824Z,44.27
2017-11-01T13:14:54.584Z,30.87
2017-11-01T13:17:22.416Z,40.40
2017-11-01T13:19:50.967Z,44.20
2017-11-01T13:22:18.934Z,50.20
2017-11-01T13:24:46.802Z,33.77
2017-11-01T13:27:15.486Z,36.17
2017-11-01T13:29:43.268Z,41.53
2017-11-01T13:32:11.939Z,44.40
2017-11-01T13:34:39.809Z,47.60
2017-11-01T13:37:07.668Z,43.20
2017-11-01T13:39:35.632Z,36.90
2017-11-01T13:42:03.607Z,49.60
2017-11-01T13:44:31.588Z,40.17
2017-11-01T13:46:59.444Z,47.60
2017-11-01T13:49:27.419Z,49.87
2017-11-01T13:51:55.284Z,45.13
2017-11-01T13:54:23.146Z,38.70
2017-11-01T13:56:51.009Z,48.53
2017-11-01T13:59:19.079Z,34.77
2017-11-01T14:01:46.949Z,39.13
2017-11-01T14:04:14.820Z,48.07
2017-11-01T14:06:42.679Z,41.70
2017-11-01T14:09:10.649Z,45.57
2017-11-01T14:11:38.518Z,37.87
2017-11-01T14:14:06.485Z,43.30
2017-11-01T14:16:34.357Z,44.70
2017-11-01T14:19:02.325Z,44.13
2017-11-01T14:21:30.189Z,43.63
2017-11-01T14:23:58.053Z,41.03
2017-11-01T14:26:25.920Z,59.17
2017-11-01T14:28:53.795Z,45.57
2017-11-01T14:31:21.658Z,45.40
2017-11-01T14:33:49.625Z,45.67
2017-11-01T14:36:17.496Z,42.30
2017-11-01T14:38:45.462Z,40.20
2017-11-01T14:41:13.331Z,43.83
2017-11-01T14:43:42.324Z,56.83
2017-11-01T14:46:10.288Z,44.13
2017-11-01T14:48:38.154Z,50.83
2017-11-01T14:51:05.975Z,63.80
2017-11-01T14:53:34.303Z,54.80
2017-11-01T14:56:02.064Z,58.70
2017-11-01T14:58:29.780Z,53.33
2017-11-01T15:00:57.501Z,51.60
2017-11-01T15:03:25.158Z,49.53
2017-11-01T15:05:52.821Z,51.60
2017-11-01T15:08:20.675Z,52.37
2017-11-01T15:10:48.390Z,41.20
2017-11-01T15:13:16.105Z,46.60
2017-11-01T15:15:43.764Z,40.87
2017-11-01T15:18:11.436Z,45.77
2017-11-01T15:20:39.917Z,47.37
2017-11-01T15:23:07.569Z,39.07
2017-11-01T15:25:35.262Z,36.57
2017-11-01T15:28:03.874Z,48.03
2017-11-01T15:30:31.630Z,37.67
2017-11-01T15:32:59.395Z,48.57
2017-11-01T15:35:27.976Z,42.40
2017-11-01T15:37:56.551Z,47.17
2017-11-01T15:40:25.113Z,38.67
2017-11-01T15:42:53.211Z,41.80
2017-11-01T15:45:21.123Z,38.13
2017-11-01T15:47:48.913Z,40.27
2017-11-01T15:50:16.619Z,45.87
2017-11-01T15:52:44.331Z,39.73
2017-11-01T15:55:12.082Z,46.23
2017-11-01T15:57:39.789Z,37.50
2017-11-01T16:00:08.275Z,48.20
2017-11-01T16:02:36.727Z,37.03
2017-11-01T16:05:04.425Z,42.13
2017-11-01T16:07:32.909Z,41.67
2017-11-01T16:10:00.584Z,53.30
2017-11-01T16:12:28.253Z,39.20
2017-11-01T16:14:55.912Z,43.90
2017-11-01T16:17:23.609Z,43.00
2017-11-01T16:19:51.297Z,42.90
2017-11-01T16:22:18.942Z,42.37
2017-11-01T16:24:46.773Z,46.27
2017-11-01T16:27:14.510Z,54.80
2017-11-01T16:29:42.958Z,46.73
2017-11-01T16:32:10.745Z,38.73
2017-11-01T16:34:39.191Z,46.33
2017-11-01T16:37:06.932Z,45.93
2017-11-01T16:39:34.616Z,54.60
2017-11-01T16:42:02.277Z,48.60
2017-11-01T16:44:29.967Z,44.43
2017-11-01T16:46:57.687Z,52.23
2017-11-01T16:49:25.453Z,46.23
2017-11-01T16:51:53.333Z,53.83
2017-11-01T16:54:20.983Z,53.53
2017-11-01T16:56:48.770Z,43.10
2017-11-01T16:59:16.618Z,52.93
2017-11-01T17:01:44.386Z,43.73
2017-11-01T17:04:12.002Z,46.60
2017-11-01T17:06:39.834Z,44.20
2017-11-01T17:09:07.508Z,43.07
2017-11-01T17:11:36.027Z,43.60
2017-11-01T17:14:03.706Z,41.73
2017-11-01T17:16:31.459Z,38.10
2017-11-01T17:18:59.100Z,38.73
2017-11-01T17:21:26.898Z,45.73
2017-11-01T17:27:03.436Z,41.53
2017-11-01T17:29:31.352Z,38.07
2017-11-01T17:31:59.281Z,42.27
2017-11-01T17:34:27.240Z,37.50
2017-11-01T17:36:56.023Z,41.70
2017-11-01T17:39:24.102Z,41.10
2017-11-01T17:41:51.976Z,42.60
2017-11-01T17:44:19.911Z,44.17
2017-11-01T17:46:48.722Z,31.60
2017-11-01T17:49:16.907Z,44.93
2017-11-01T17:51:45.055Z,39.43
2017-11-01T17:54:14.571Z,41.37
2017-11-01T17:56:42.453Z,39.90
2017-11-01T17:59:10.696Z,43.63
2017-11-01T18:01:39.260Z,44.70
2017-11-01T18:04:08.663Z,39.47
2017-11-01T18:06:36.489Z,45.03
2017-11-01T18:09:04.442Z,48.10
2017-11-01T18:11:32.266Z,34.97
2017-11-01T18:14:00.129Z,43.53
2017-11-01T18:16:27.949Z,43.40
2017-11-01T18:18:55.822Z,48.23
2017-11-01T18:21:23.642Z,45.50
2017-11-01T18:23:52.277Z,46.57
2017-11-01T18:26:20.120Z,47.20
2017-11-01T18:28:48.060Z,51.10
2017-11-01T18:31:16.685Z,45.60
2017-11-01T18:33:44.614Z,48.60
2017-11-01T18:36:13.297Z,43.57
2017-11-01T18:38:41.135Z,56.30
2017-11-01T18:41:09.001Z,49.00
2017-11-01T18:43:36.731Z,47.53
2017-11-01T18:46:04.376Z,43.33
2017-11-01T18:48:32.802Z,64.30
2017-11-01T18:51:00.456Z,45.70
2017-11-01T18:53:28.089Z,43.33
2017-11-01T18:55:55.731Z,48.23
2017-11-01T18:58:24.149Z,46.33
2017-11-01T19:00:51.807Z,54.00
2017-11-01T19:03:19.422Z,51.90
2017-11-01T19:05:47.090Z,43.47
2017-11-01T19:08:14.799Z,44.77
2017-11-01T19:10:42.454Z,49.17
2017-11-01T19:13:10.488Z,48.57
2017-11-01T19:15:39.144Z,52.23
2017-11-01T19:18:06.982Z,39.73
2017-11-01T19:20:34.862Z,52.23
2017-11-01T19:23:02.674Z,44.10
2017-11-01T19:25:31.315Z,59.87
2017-11-01T19:27:59.130Z,48.23
2017-11-01T19:30:27.766Z,49.00
2017-11-01T19:32:55.585Z,49.77
2017-11-01T19:35:24.217Z,52.07
2017-11-01T19:37:52.033Z,51.73
2017-11-01T19:40:20.660Z,50.80
2017-11-01T19:42:48.469Z,47.57
2017-11-01T19:45:16.337Z,42.73
2017-11-01T19:47:44.158Z,51.33
2017-11-01T19:50:12.135Z,47.77
2017-11-01T19:52:39.942Z,47.67
2017-11-01T19:55:07.809Z,45.30
2017-11-01T19:57:35.697Z,47.53
2017-11-01T20:00:03.600Z,47.30
2017-11-01T20:02:31.406Z,53.80
2017-11-01T20:04:59.319Z,47.40
2017-11-01T20:07:27.155Z,64.97
2017-11-01T20:09:55.760Z,60.03
2017-11-01T20:12:23.594Z,46.67
2017-11-01T20:14:51.473Z,43.97
2017-11-01T20:17:19.879Z,42.17
2017-11-01T20:19:47.824Z,51.50
2017-11-01T20:22:16.538Z,60.57
2017-11-01T20:24:44.455Z,54.20
2017-11-01T20:27:12.641Z,46.63
2017-11-01T20:29:41.450Z,53.17
2017-11-01T20:32:09.375Z,56.57
2017-11-01T20:34:37.458Z,47.83
2017-11-01T20:37:05.738Z,57.50
2017-11-01T20:39:33.709Z,55.00
2017-11-01T20:42:01.832Z,51.57
2017-11-01T20:44:30.105Z,72.27
2017-11-01T20:46:58.177Z,42.53
2017-11-01T20:49:26.000Z,62.90
2017-11-01T20:51:53.898Z,56.70
2017-11-01T20:54:21.729Z,46.07
2017-11-01T20:56:49.618Z,59.30
2017-11-01T20:59:17.465Z,45.67
2017-11-01T21:01:45.357Z,47.73
2017-11-01T21:04:13.885Z,53.03
2017-11-01T21:06:41.532Z,45.67
2017-11-01T21:09:09.269Z,55.23
2017-11-01T21:11:37.691Z,48.00
2017-11-01T21:14:05.307Z,45.47
2017-11-01T21:16:33.762Z,55.60
2017-11-01T21:19:01.395Z,47.10
2017-11-01T21:21:29.058Z,48.20
2017-11-01T21:23:56.690Z,40.43
2017-11-01T21:26:24.349Z,51.23
2017-11-01T21:28:52.041Z,48.23
2017-11-01T21:31:19.703Z,49.03
2017-11-01T21:33:47.327Z,49.30
2017-11-01T21:36:15.754Z,57.40
2017-11-01T21:38:43.416Z,46.77
2017-11-01T21:41:11.063Z,56.97
2017-11-01T21:43:38.732Z,48.33
2017-11-01T21:46:06.368Z,46.80
2017-11-01T21:48:34.031Z,46.87
2017-11-01T21:51:01.687Z,40.93
2017-11-01T21:53:30.077Z,52.03
2017-11-01T21:55:57.719Z,46.00
2017-11-01T21:58:26.094Z,49.63
2017-11-01T22:00:54.504Z,53.07
2017-11-01T22:03:22.135Z,44.90
2017-11-01T22:05:50.551Z,44.33
2017-11-01T22:08:18.179Z,43.90
2017-11-01T22:10:46.601Z,48.33
2017-11-01T22:13:14.226Z,37.43
2017-11-01T22:15:42.668Z,41.37
2017-11-01T22:18:10.292Z,41.17
2017-11-01T22:20:37.952Z,34.77
2017-11-01T22:23:05.578Z,44.23
2017-11-01T22:25:34.016Z,41.40
2017-11-01T22:28:01.675Z,35.40
2017-11-01T22:30:29.300Z,40.23
2017-11-01T22:32:57.724Z,36.57
2017-11-01T22:35:25.346Z,25.40
2017-11-01T22:37:53.013Z,34.60
2017-11-01T22:40:20.647Z,38.70
2017-11-01T22:42:48.309Z,32.77
2017-11-01T22:45:15.942Z,34.73
2017-11-01T22:47:43.596Z,34.57
2017-11-01T22:50:11.254Z,32.77
2017-11-01T22:52:38.871Z,29.97
2017-11-01T22:55:07.288Z,34.97
2017-11-01T22:57:34.918Z,32.47
2017-11-01T23:00:03.464Z,36.37
2017-11-01T23:02:31.210Z,37.73
2017-11-01T23:04:58.847Z,33.83
2017-11-01T23:07:26.501Z,39.93
2017-11-01T23:09:54.130Z,36.80
2017-11-01T23:12:22.552Z,39.17
2017-11-01T23:14:50.238Z,37.53
2017-11-01T23:17:18.004Z,39.83
2017-11-01T23:19:45.629Z,31.93
2017-11-01T23:22:13.267Z,30.93
2017-11-01T23:24:41.718Z,39.17
2017-11-01T23:27:09.367Z,33.70
2017-11-01T23:29:37.039Z,37.63
2017-11-01T23:32:04.677Z,33.47
2017-11-01T23:34:32.327Z,35.77
2017-11-01T23:36:59.947Z,32.93
2017-11-01T23:39:27.571Z,37.80
2017-11-01T23:41:55.233Z,31.60
2017-11-01T23:44:22.870Z,35.10
2017-11-01T23:46:50.543Z,32.37
2017-11-01T23:49:18.171Z,28.60
2017-11-01T23:51:46.607Z,36.00
2017-11-01T23:54:14.243Z,31.33
2017-11-01T23:56:41.860Z,26.57
2017-11-01T23:59:09.512Z,29.20
